Time;durP1;ratioP1;P1;durP2;ratioP2;P2;SDS_P1;SDS_P2;PMS_P1;PMS_P2;Temp;Humidity;BMP_temperature;BMP_pressure;BME280_temperature;BME280_humidity;BME280_pressure;Samples;Min_cycle;Max_cycle;Signal;HPM_P1;HPM_P2
2023/04/14 00:01:26;;;;;;;14.30;10.50;;;9.20;99.90;;;;;;5041878;28;20460;-86
2023/04/14 00:03:53;;;;;;;15.53;10.80;;;9.10;1.00;;;;;;5040629;28;20515;-86
2023/04/14 00:06:21;;;;;;;14.67;11.07;;;9.10;99.90;;;;;;5042646;28;20528;-87
2023/04/14 00:08:48;;;;;;;16.47;9.70;;;9.10;1.00;;;;;;5058033;28;20486;-87
2023/04/14 00:11:15;;;;;;;12.83;10.83;;;9.10;1.00;;;;;;5053972;28;20455;-86
2023/04/14 00:13:42;;;;;;;11.77;10.53;;;9.20;1.00;;;;;;5058921;28;20444;-87
2023/04/14 00:16:10;;;;;;;11.23;9.13;;;9.20;99.90;;;;;;5050540;28;20470;-86
2023/04/14 00:18:37;;;;;;;16.93;11.27;;;9.20;99.90;;;;;;5052738;28;20414;-86
2023/04/14 00:21:04;;;;;;;12.17;9.70;;;9.30;99.90;;;;;;5058829;28;20471;-87
2023/04/14 00:23:32;;;;;;;15.33;9.60;;;9.20;53.10;;;;;;5049968;28;20446;-86
2023/04/14 00:26:02;;;;;;;10.97;9.03;;;9.20;5.40;;;;;;5042630;28;20438;-86
2023/04/14 00:28:28;;;;;;;14.20;10.20;;;9.30;26.20;;;;;;5039872;28;20487;-87
2023/04/14 00:30:55;;;;;;;16.23;11.30;;;9.30;40.60;;;;;;5039146;28;20522;-87
2023/04/14 00:33:22;;;;;;;11.27;10.00;;;9.30;70.40;;;;;;5040147;28;20478;-86
2023/04/14 00:35:49;;;;;;;13.10;10.93;;;9.30;11.10;;;;;;5039890;28;20480;-86
2023/04/14 00:38:16;;;;;;;14.23;11.27;;;9.30;92.40;;;;;;5040958;28;20436;-87
2023/04/14 00:40:45;;;;;;;14.83;10.00;;;9.30;61.10;;;;;;5039205;28;20778;-87
2023/04/14 00:43:11;;;;;;;12.53;9.80;;;9.30;99.90;;;;;;5039280;28;20441;-87
2023/04/14 00:45:44;;;;;;;14.03;10.43;;;9.00;1.00;;;;;;5039592;28;20465;-87
2023/04/14 00:48:13;;;;;;;13.93;11.20;;;9.30;99.90;;;;;;5039740;28;21018;-86
2023/04/14 00:50:40;;;;;;;15.03;9.90;;;9.30;99.90;;;;;;5040222;28;20539;-86
2023/04/14 00:53:07;;;;;;;15.33;9.90;;;9.30;1.00;;;;;;5041476;28;20451;-86
2023/04/14 00:55:35;;;;;;;18.13;10.40;;;9.30;99.90;;;;;;5040749;28;20556;-88
2023/04/14 00:58:03;;;;;;;12.80;10.63;;;8.90;99.90;;;;;;5041882;28;20440;-88
2023/04/14 01:00:33;;;;;;;14.97;11.43;;;9.10;1.00;;;;;;5043365;28;20484;-87
2023/04/14 01:03:00;;;;;;;11.00;9.63;;;9.10;1.00;;;;;;5041246;28;20407;-87
2023/04/14 01:05:27;;;;;;;16.00;10.40;;;8.90;17.10;;;;;;5040164;28;20453;-86
2023/04/14 01:07:55;;;;;;;9.70;8.77;;;9.20;1.00;;;;;;5040425;28;20524;-86
2023/04/14 01:10:22;;;;;;;12.80;10.47;;;9.20;99.90;;;;;;5043456;28;20547;-86
2023/04/14 01:13:07;;;;;;;12.20;9.60;;;9.30;99.90;;;;;;5054665;28;20513;-87
2023/04/14 01:15:41;;;;;;;12.23;8.70;;;9.20;1.00;;;;;;5050015;28;20469;-86
2023/04/14 01:18:21;;;;;;;11.60;9.60;;;9.30;99.90;;;;;;5045653;28;20444;-86
2023/04/14 01:20:50;;;;;;;7.67;6.93;;;9.30;1.00;;;;;;5054230;28;20437;-87
2023/04/14 01:23:22;;;;;;;7.50;6.83;;;9.40;99.90;;;;;;5040175;28;20412;-86
2023/04/14 01:26:13;;;;;;;7.50;6.80;;;9.50;99.90;;;;;;5039854;28;20486;-87
2023/04/14 01:28:59;;;;;;;12.80;7.53;;;9.60;99.90;;;;;;5038278;28;20551;-86
2023/04/14 01:31:30;;;;;;;11.00;7.20;;;9.60;1.00;;;;;;5050806;28;20419;-86
2023/04/14 01:34:14;;;;;;;9.13;8.23;;;9.50;1.00;;;;;;5051985;28;20434;-87
2023/04/14 01:36:43;;;;;;;12.57;8.33;;;9.50;57.90;;;;;;5051172;28;20487;-87
2023/04/14 01:39:19;;;;;;;11.90;9.07;;;9.60;99.90;;;;;;5048866;28;20448;-87
2023/04/14 01:41:49;;;;;;;6.70;6.10;;;9.50;99.90;;;;;;5050083;28;20433;-87
2023/04/14 01:44:20;;;;;;;11.10;8.30;;;9.50;99.90;;;;;;5049812;28;20472;-87
2023/04/14 01:46:51;;;;;;;12.57;8.57;;;9.60;25.10;;;;;;5044706;28;20522;-87
2023/04/14 01:49:22;;;;;;;9.33;8.30;;;9.40;1.00;;;;;;5048946;28;20523;-88
2023/04/14 01:51:50;;;;;;;8.00;6.90;;;9.40;81.20;;;;;;5058010;28;20492;-87
2023/04/14 01:54:18;;;;;;;9.73;7.47;;;9.40;99.90;;;;;;5057872;28;20427;-87
2023/04/14 01:56:46;;;;;;;7.40;6.60;;;9.50;99.90;;;;;;5056504;28;20471;-87
2023/04/14 01:59:14;;;;;;;8.17;6.80;;;9.40;99.90;;;;;;5041601;28;20508;-87
2023/04/14 02:01:42;;;;;;;7.03;6.30;;;9.50;99.90;;;;;;5043668;28;20478;-86
2023/04/14 02:04:12;;;;;;;6.93;6.23;;;9.50;1.00;;;;;;5043514;28;20464;-88
2023/04/14 02:06:40;;;;;;;12.83;8.37;;;9.60;1.00;;;;;;5044169;28;20543;-87
2023/04/14 02:09:11;;;;;;;7.00;6.00;;;9.60;1.00;;;;;;5044880;28;20857;-87
2023/04/14 02:11:39;;;;;;;6.40;5.17;;;9.40;98.40;;;;;;5042419;28;20423;-87
2023/04/14 02:14:08;;;;;;;8.77;6.07;;;9.40;99.90;;;;;;5044684;28;20514;-87
2023/04/14 02:16:36;;;;;;;7.80;5.53;;;9.30;79.60;;;;;;5044473;28;20964;-87
2023/04/14 02:19:05;;;;;;;6.50;5.90;;;9.40;1.00;;;;;;5048144;28;20439;-88
2023/04/14 02:21:34;;;;;;;6.87;5.60;;;9.50;99.90;;;;;;5045151;28;20441;-86
2023/04/14 02:24:01;;;;;;;5.50;5.10;;;9.50;1.00;;;;;;5053089;28;20441;-87
2023/04/14 02:26:31;;;;;;;5.70;5.20;;;9.50;99.90;;;;;;5052047;28;20460;-85
2023/04/14 02:29:06;;;;;;;6.30;5.70;;;9.50;99.90;;;;;;5056298;28;20986;-88
2023/04/14 02:31:36;;;;;;;5.67;5.10;;;9.40;99.90;;;;;;5046905;28;20461;-87
2023/04/14 02:34:07;;;;;;;6.10;5.50;;;9.30;77.10;;;;;;5045156;28;20452;-87
2023/04/14 02:36:42;;;;;;;7.20;5.53;;;9.30;27.60;;;;;;5044190;28;20501;-87
2023/04/14 02:39:14;;;;;;;8.00;5.53;;;9.20;51.40;;;;;;5044469;28;20437;-86
2023/04/14 02:41:43;;;;;;;6.07;5.47;;;9.20;99.90;;;;;;5044634;28;20434;-87
2023/04/14 02:44:17;;;;;;;8.37;5.70;;;9.20;99.90;;;;;;5042086;28;20958;-87
2023/04/14 02:46:53;;;;;;;7.33;5.93;;;9.20;99.90;;;;;;5042270;28;20509;-87
2023/04/14 02:49:21;;;;;;;5.73;4.80;;;9.20;99.90;;;;;;5041532;28;20979;-86
2023/04/14 02:51:51;;;;;;;6.23;5.17;;;9.20;84.90;;;;;;5044035;28;20460;-86
2023/04/14 02:54:19;;;;;;;8.00;5.47;;;9.20;99.90;;;;;;5044597;28;20459;-87
2023/04/14 02:56:46;;;;;;;5.73;5.23;;;9.20;99.90;;;;;;5044759;28;20551;-88
2023/04/14 02:59:13;;;;;;;6.23;5.40;;;9.20;99.90;;;;;;5053948;28;20429;-88
2023/04/14 03:01:41;;;;;;;5.60;5.10;;;9.20;99.90;;;;;;5045858;28;20486;-85
2023/04/14 03:04:09;;;;;;;9.10;5.90;;;9.10;1.00;;;;;;5040620;28;20955;-87
2023/04/14 03:06:39;;;;;;;5.53;4.97;;;9.00;1.00;;;;;;5040281;28;20540;-87
2023/04/14 03:09:08;;;;;;;7.30;5.70;;;9.00;99.90;;;;;;5040490;28;20465;-87
2023/04/14 03:11:36;;;;;;;8.80;5.70;;;8.60;40.10;;;;;;5040715;28;20511;-87
2023/04/14 03:14:04;;;;;;;8.00;5.97;;;8.70;1.00;;;;;;5041424;28;20876;-87
2023/04/14 03:16:33;;;;;;;6.73;6.07;;;8.70;99.90;;;;;;5043318;28;20535;-86
2023/04/14 03:19:01;;;;;;;12.13;5.83;;;8.60;99.90;;;;;;5043444;28;20423;-86
2023/04/14 03:21:29;;;;;;;8.83;5.47;;;8.50;99.90;;;;;;5046183;28;20500;-86
2023/04/14 03:23:57;;;;;;;7.40;6.37;;;8.10;1.00;;;;;;5055050;28;20453;-88
2023/04/14 03:26:27;;;;;;;6.03;5.57;;;8.50;99.90;;;;;;5059993;28;20460;-87
2023/04/14 03:28:57;;;;;;;5.70;5.20;;;8.40;99.90;;;;;;5051241;28;20579;-86
2023/04/14 03:31:31;;;;;;;6.77;6.17;;;8.60;1.00;;;;;;5047215;28;20939;-86
2023/04/14 03:34:01;;;;;;;6.93;6.30;;;8.50;1.00;;;;;;5043991;28;20421;-86
2023/04/14 03:36:30;;;;;;;7.20;5.73;;;8.70;1.00;;;;;;5043285;28;20522;-87
2023/04/14 03:39:00;;;;;;;7.20;6.23;;;8.40;1.00;;;;;;5043660;28;20479;-87
2023/04/14 03:41:31;;;;;;;9.33;6.17;;;8.60;1.00;;;;;;5044685;28;20937;-87
2023/04/14 03:43:58;;;;;;;7.70;6.50;;;8.60;37.20;;;;;;5044085;28;20516;-87
2023/04/14 03:46:27;;;;;;;7.57;6.87;;;8.50;99.90;;;;;;5044365;28;20499;-87
2023/04/14 03:48:57;;;;;;;8.90;7.00;;;8.50;1.00;;;;;;5044795;28;20489;-85
2023/04/14 03:51:28;;;;;;;8.23;6.13;;;8.40;42.80;;;;;;5045124;28;20448;-87
2023/04/14 03:53:56;;;;;;;7.03;6.37;;;8.40;99.90;;;;;;5053458;28;20429;-88
2023/04/14 03:56:24;;;;;;;7.00;6.07;;;8.60;99.90;;;;;;5054530;28;20480;-86
2023/04/14 03:58:55;;;;;;;6.73;5.97;;;8.50;99.90;;;;;;5044826;28;20816;-86
2023/04/14 04:01:24;;;;;;;11.13;6.85;;;8.70;1.00;;;;;;5044168;28;20503;-87
2023/04/14 04:03:53;;;;;;;8.87;6.83;;;8.70;1.00;;;;;;5042170;28;20451;-87
2023/04/14 04:06:21;;;;;;;9.77;6.67;;;8.50;99.90;;;;;;5040483;28;20480;-86
2023/04/14 04:08:49;;;;;;;13.50;7.17;;;8.50;99.90;;;;;;5042245;28;20484;-86
2023/04/14 04:11:19;;;;;;;7.13;6.43;;;8.70;99.90;;;;;;5055258;28;20440;-87
2023/04/14 04:13:48;;;;;;;9.10;7.07;;;8.70;99.90;;;;;;5057609;28;20492;-86
2023/04/14 04:16:16;;;;;;;10.13;7.10;;;8.70;1.00;;;;;;5048994;28;20534;-87
2023/04/14 04:18:45;;;;;;;15.37;7.70;;;8.70;99.90;;;;;;5044312;28;20415;-87
2023/04/14 04:21:16;;;;;;;7.13;6.17;;;8.40;1.00;;;;;;5046819;28;20435;-86
2023/04/14 04:23:48;;;;;;;8.87;6.10;;;8.60;1.00;;;;;;5044613;28;20478;-87
2023/04/14 04:26:15;;;;;;;7.50;6.00;;;8.70;99.90;;;;;;5043226;28;20514;-86
2023/04/14 04:28:43;;;;;;;6.80;6.10;;;8.70;99.90;;;;;;5043784;28;20479;-87
2023/04/14 04:31:11;;;;;;;11.30;6.90;;;8.60;1.00;;;;;;5046397;28;20538;-87
2023/04/14 04:33:39;;;;;;;8.37;5.87;;;8.70;99.90;;;;;;5045708;28;20427;-86
2023/04/14 04:38:45;;;;;;;7.00;6.30;;;8.70;1.00;;;;;;4165924;26;20477;-91
2023/04/14 04:41:21;;;;;;;6.60;5.90;;;8.80;99.90;;;;;;5021232;28;20975;-91
2023/04/14 04:43:49;;;;;;;6.83;6.23;;;8.70;99.90;;;;;;5021427;28;20438;-91
2023/04/14 04:46:39;;;;;;;7.30;6.10;;;10.00;1.00;;;;;;5037386;28;20454;-90
2023/04/14 04:49:17;;;;;;;8.43;7.10;;;8.80;99.90;;;;;;5038240;28;20465;-90
2023/04/14 04:51:45;;;;;;;7.83;7.13;;;;;;;;;;5037664;28;20414;-90
2023/04/14 04:54:12;;;;;;;10.73;6.77;;;;;;;;;;5037369;28;20454;-90
2023/04/14 04:56:42;;;;;;;5.87;5.37;;;8.70;1.00;;;;;;5037599;28;20500;-89
2023/04/14 04:59:10;;;;;;;6.33;5.80;;;;;;;;;;5036972;28;20441;-90
2023/04/14 05:01:51;;;;;;;7.70;5.93;;;8.80;99.90;;;;;;5029038;28;20748;-90
2023/04/14 05:04:41;;;;;;;5.80;5.23;;;8.80;99.90;;;;;;5036693;28;20470;-91
2023/04/14 05:07:13;;;;;;;6.70;5.30;;;8.90;1.00;;;;;;5037792;28;20458;-90
2023/04/14 05:09:44;;;;;;;8.40;6.67;;;;;;;;;;5038039;28;20481;-90
2023/04/14 05:12:11;;;;;;;6.57;5.97;;;;;;;;;;5037948;28;20461;-90
2023/04/14 05:14:42;;;;;;;9.33;6.33;;;8.80;24.10;;;;;;5023245;28;20438;-91
2023/04/14 05:17:10;;;;;;;7.30;5.60;;;;;;;;;;5020271;28;20516;-90
2023/04/14 05:20:04;;;;;;;6.30;5.70;;;9.00;99.90;;;;;;5020542;28;20473;-91
2023/04/14 06:46:16;;;;;;;8.03;7.33;;;9.10;1.00;;;;;;6109803;22;20369;-86
2023/04/14 06:48:43;;;;;;;12.87;8.50;;;9.10;1.00;;;;;;5042300;28;20456;-87
2023/04/14 06:51:11;;;;;;;7.87;7.07;;;9.10;63.40;;;;;;5041166;28;20992;-87
2023/04/14 06:53:38;;;;;;;12.13;8.40;;;9.00;1.00;;;;;;5042965;28;20448;-86
2023/04/14 06:56:07;;;;;;;8.70;7.80;;;9.00;1.00;;;;;;5044193;28;20440;-88
2023/04/14 06:58:34;;;;;;;9.47;8.13;;;9.00;99.90;;;;;;5025322;28;20454;-87
2023/04/14 07:01:02;;;;;;;11.73;9.97;;;9.10;1.00;;;;;;5065123;22;20519;-89
2023/04/14 07:03:31;;;;;;;13.33;9.10;;;9.10;1.00;;;;;;5039923;28;20490;-89
2023/04/14 07:06:05;;;;;;;9.20;7.90;;;9.10;99.90;;;;;;5041063;28;20454;-90
2023/04/14 07:08:33;;;;;;;11.83;9.47;;;;;;;;;;5041975;28;20448;-89
2023/04/14 07:11:04;;;;;;;10.27;8.90;;;9.10;53.90;;;;;;5044021;28;20520;-90
2023/04/14 07:13:31;;;;;;;10.33;8.97;;;9.10;99.90;;;;;;5047021;28;20399;-88
2023/04/14 07:15:59;;;;;;;10.83;9.83;;;9.30;99.90;;;;;;5050357;28;20448;-88
2023/04/14 07:18:25;;;;;;;10.03;8.93;;;9.30;1.00;;;;;;5048962;28;20528;-89
2023/04/14 07:20:54;;;;;;;10.50;9.00;;;9.30;1.00;;;;;;5051014;28;20534;-89
2023/04/14 07:23:22;;;;;;;10.47;9.37;;;8.90;16.80;;;;;;5053135;28;20452;-89
2023/04/14 07:25:52;;;;;;;12.80;9.40;;;9.30;1.00;;;;;;5059084;28;20411;-88
2023/04/14 07:28:24;;;;;;;10.23;9.17;;;9.10;1.00;;;;;;5059426;28;20431;-88
2023/04/14 07:33:36;;;;;;;10.23;8.13;;;9.30;99.90;;;;;;5098198;22;20489;-88
2023/04/14 07:36:05;;;;;;;8.60;7.63;;;9.10;99.90;;;;;;5059057;28;20440;-87
2023/04/14 07:38:33;;;;;;;12.23;8.73;;;;;;;;;;5053417;28;20431;-90
2023/04/14 07:41:01;;;;;;;12.63;8.67;;;8.90;99.90;;;;;;5051851;28;20519;-88
2023/04/14 07:43:33;;;;;;;8.53;7.77;;;;;;;;;;5050371;28;20449;-88
2023/04/14 08:51:03;;;;;;;8.10;5.10;;;6.80;99.90;;;;;;4962853;28;20464;-86
2023/04/14 08:53:34;;;;;;;7.38;6.68;;;8.90;99.90;;;;;;5046232;28;20816;-85
2023/04/14 08:56:04;;;;;;;7.93;6.70;;;8.50;99.90;;;;;;5042026;28;20262;-86
2023/04/14 08:58:31;;;;;;;7.60;6.70;;;8.50;99.90;;;;;;5062139;22;20430;-81
2023/04/14 09:00:58;;;;;;;10.23;6.10;;;8.50;99.90;;;;;;5043966;28;20543;-79
2023/04/14 09:03:26;;;;;;;7.67;6.70;;;8.60;99.90;;;;;;5044208;28;20527;-85
2023/04/14 09:05:55;;;;;;;7.23;6.53;;;8.50;99.90;;;;;;5044738;28;20501;-84
2023/04/14 09:08:23;;;;;;;8.13;6.30;;;8.40;99.90;;;;;;5045393;28;20446;-85
2023/04/14 09:10:51;;;;;;;8.93;6.23;;;8.50;99.90;;;;;;5047571;28;20458;-84
2023/04/14 09:13:21;;;;;;;7.73;6.93;;;8.40;99.90;;;;;;5048933;28;20874;-83
2023/04/14 09:15:49;;;;;;;7.10;5.87;;;8.50;99.90;;;;;;5049350;28;20406;-84
2023/04/14 09:18:17;;;;;;;9.37;7.80;;;8.50;99.90;;;;;;5049969;28;20427;-84
2023/04/14 09:20:47;;;;;;;12.10;7.30;;;8.50;99.90;;;;;;5044544;28;20489;-84
2023/04/14 09:23:15;;;;;;;10.47;8.70;;;8.50;99.90;;;;;;5055525;28;20401;-84
2023/04/14 09:25:43;;;;;;;11.30;8.73;;;8.50;99.90;;;;;;5053165;28;20429;-85
2023/04/14 09:28:11;;;;;;;10.20;8.23;;;8.50;99.90;;;;;;5049043;28;20508;-85
2023/04/14 09:30:38;;;;;;;8.90;8.00;;;8.50;99.90;;;;;;5049053;28;20847;-86
2023/04/14 09:33:05;;;;;;;12.97;8.77;;;8.50;99.90;;;;;;5057517;28;20425;-84
2023/04/14 09:35:43;;;;;;;8.00;7.20;;;8.50;99.90;;;;;;5061674;28;20406;-85
2023/04/14 09:38:12;;;;;;;9.00;7.80;;;8.40;99.90;;;;;;5049806;28;20432;-85
2023/04/14 09:40:43;;;;;;;12.98;8.45;;;8.40;99.90;;;;;;5052734;28;20482;-85
2023/04/14 09:43:22;;;;;;;8.67;7.77;;;8.50;99.90;;;;;;5049401;28;20221;-85
2023/04/14 09:45:49;;;;;;;11.63;7.93;;;8.40;99.90;;;;;;5046696;28;20435;-85
2023/04/14 09:48:17;;;;;;;10.47;8.50;;;8.50;99.90;;;;;;5045988;28;20448;-85
2023/04/14 09:50:57;;;;;;;10.57;8.90;;;8.30;99.90;;;;;;5051487;28;20521;-84
2023/04/14 09:53:28;;;;;;;13.20;8.43;;;8.50;99.90;;;;;;5053767;28;20411;-85
2023/04/14 09:55:58;;;;;;;11.70;8.20;;;8.50;99.90;;;;;;5050163;28;20484;-84
2023/04/14 09:58:29;;;;;;;9.43;8.43;;;8.20;99.90;;;;;;5046260;28;20486;-85
2023/04/14 10:00:58;;;;;;;14.07;10.50;;;8.80;99.90;;;;;;5046520;28;21013;-86
2023/04/14 10:03:34;;;;;;;13.10;9.10;;;8.50;99.90;;;;;;5054685;28;20447;-84
2023/04/14 10:06:03;;;;;;;11.63;10.30;;;8.70;99.90;;;;;;5061178;28;20398;-85
2023/04/14 10:08:41;;;;;;;12.50;9.27;;;8.30;99.90;;;;;;5051779;28;20424;-84
2023/04/14 10:11:23;;;;;;;13.10;9.77;;;8.50;99.90;;;;;;5047717;28;20451;-84
2023/04/14 10:13:53;;;;;;;16.33;11.23;;;8.60;99.90;;;;;;5047575;28;20430;-83
2023/04/14 10:16:21;;;;;;;12.80;10.40;;;10.10;99.90;;;;;;5056785;28;20422;-83
2023/04/14 10:18:48;;;;;;;13.83;10.00;;;8.60;99.90;;;;;;5051166;28;20442;-85
2023/04/14 10:21:16;;;;;;;15.20;11.53;;;8.60;99.90;;;;;;5045335;28;20422;-84
2023/04/14 10:23:44;;;;;;;11.87;10.43;;;8.60;99.90;;;;;;5045809;28;20857;-84
2023/04/14 10:26:13;;;;;;;10.47;9.30;;;8.50;99.90;;;;;;5046011;28;20815;-86
2023/04/14 10:28:44;;;;;;;13.90;10.27;;;8.50;99.90;;;;;;5045819;28;20513;-84
2023/04/14 10:31:14;;;;;;;15.00;10.80;;;8.50;99.90;;;;;;5045567;28;20442;-84
2023/04/14 10:33:42;;;;;;;12.90;10.43;;;8.60;99.90;;;;;;5047231;28;20431;-84
2023/04/14 10:36:09;;;;;;;13.13;11.13;;;8.50;99.90;;;;;;5046008;28;20506;-84
2023/04/14 10:38:44;;;;;;;13.80;9.10;;;8.20;99.90;;;;;;5048073;28;20452;-84
2023/04/14 10:41:11;;;;;;;12.70;10.80;;;8.40;99.90;;;;;;5051847;28;20447;-85
2023/04/14 10:43:39;;;;;;;10.40;9.13;;;8.40;99.90;;;;;;5050316;28;20505;-85
2023/04/14 10:46:09;;;;;;;11.37;9.40;;;8.30;99.90;;;;;;5053962;28;20442;-82
2023/04/14 10:48:38;;;;;;;13.45;9.85;;;8.40;99.90;;;;;;5045389;28;20439;-79
2023/04/14 10:51:07;;;;;;;15.53;10.47;;;8.40;99.90;;;;;;5037444;28;20223;-78
2023/04/14 10:53:37;;;;;;;13.30;10.00;;;8.40;99.90;;;;;;5036994;28;20430;-77
2023/04/14 10:56:06;;;;;;;15.13;9.67;;;8.40;99.90;;;;;;5038553;28;20447;-77
2023/04/14 10:58:35;;;;;;;12.20;10.40;;;8.20;99.90;;;;;;5037580;28;20462;-80
2023/04/14 11:01:22;;;;;;;14.90;9.83;;;8.40;99.90;;;;;;5038279;28;20468;-78
2023/04/14 11:03:49;;;;;;;10.77;9.20;;;8.30;99.90;;;;;;5038156;28;20805;-79
2023/04/14 11:06:53;;;;;;;11.80;9.07;;;8.30;99.90;;;;;;5038035;28;20422;-79
2023/04/14 11:09:36;;;;;;;12.07;9.43;;;8.40;99.90;;;;;;5035954;28;20503;-78
2023/04/14 11:12:05;;;;;;;9.73;8.37;;;8.40;99.90;;;;;;5039039;28;20454;-77
2023/04/14 11:14:35;;;;;;;8.80;7.37;;;8.30;99.90;;;;;;5041155;28;20428;-78
2023/04/14 11:17:04;;;;;;;11.32;8.25;;;8.20;99.90;;;;;;5049728;28;20978;-78
2023/04/14 11:19:32;;;;;;;9.60;7.43;;;8.20;99.90;;;;;;5057044;28;20217;-78
2023/04/14 11:21:59;;;;;;;9.37;8.10;;;8.20;99.90;;;;;;5052824;28;20979;-78
2023/04/14 11:24:26;;;;;;;10.87;8.37;;;8.20;99.90;;;;;;5052662;28;20426;-78
2023/04/14 11:26:54;;;;;;;9.60;8.70;;;8.10;99.90;;;;;;5045044;28;20538;-78
2023/04/14 11:29:21;;;;;;;14.70;9.83;;;8.10;99.90;;;;;;5043058;28;20566;-79
2023/04/14 11:32:04;;;;;;;11.40;9.77;;;8.20;99.90;;;;;;5044069;28;20571;-79
2023/04/14 11:34:31;;;;;;;17.80;10.00;;;8.20;99.90;;;;;;5043069;28;20436;-78
2023/04/14 11:37:01;;;;;;;11.33;9.50;;;8.20;99.90;;;;;;5043047;28;20521;-78
2023/04/14 11:39:28;;;;;;;15.70;10.33;;;8.20;99.90;;;;;;5040600;28;20463;-78
2023/04/14 11:41:58;;;;;;;17.50;9.87;;;8.30;99.90;;;;;;5045533;28;20421;-78
2023/04/14 11:44:25;;;;;;;13.90;9.80;;;8.30;99.90;;;;;;5048016;28;20410;-77
2023/04/14 11:46:55;;;;;;;15.90;10.90;;;8.60;99.90;;;;;;5056316;28;20426;-77
2023/04/14 11:49:35;;;;;;;12.60;8.60;;;8.30;99.90;;;;;;5043360;28;20487;-77
2023/04/14 11:52:06;;;;;;;11.90;9.10;;;8.30;99.90;;;;;;5042000;28;20512;-76
2023/04/14 11:54:37;;;;;;;13.37;9.43;;;8.30;99.90;;;;;;5038638;28;20419;-76
2023/04/14 11:57:09;;;;;;;11.57;9.73;;;8.40;99.90;;;;;;5040667;28;20443;-78
2023/04/14 11:59:42;;;;;;;11.00;9.37;;;8.40;99.90;;;;;;5040628;28;20461;-78
2023/04/14 12:02:16;;;;;;;12.03;9.67;;;8.20;99.90;;;;;;5045068;28;20430;-78
2023/04/14 12:04:45;;;;;;;9.97;8.97;;;8.30;99.90;;;;;;5044405;28;20439;-78
2023/04/14 12:07:13;;;;;;;11.80;8.73;;;8.30;99.90;;;;;;5044525;28;20928;-78
2023/04/14 12:09:42;;;;;;;9.70;7.93;;;8.30;99.90;;;;;;5038955;28;20239;-78
2023/04/14 12:12:10;;;;;;;10.87;7.23;;;8.20;99.90;;;;;;5038160;28;20544;-77
2023/04/14 12:14:38;;;;;;;13.73;8.57;;;8.20;99.90;;;;;;5038042;28;20413;-78
2023/04/14 12:17:06;;;;;;;8.70;7.80;;;8.20;99.90;;;;;;5037942;28;20430;-78
2023/04/14 12:19:34;;;;;;;11.80;8.00;;;8.40;99.90;;;;;;5040244;28;20806;-78
2023/04/14 12:22:02;;;;;;;11.88;9.02;;;8.10;99.90;;;;;;5050456;28;20559;-79
2023/04/14 12:24:36;;;;;;;15.23;8.70;;;8.10;99.90;;;;;;5051061;28;20216;-80
2023/04/14 12:27:04;;;;;;;10.60;9.37;;;8.40;99.90;;;;;;5049747;28;20208;-79
2023/04/14 12:29:32;;;;;;;9.27;8.35;;;8.10;99.90;;;;;;5045866;28;20468;-79
2023/04/14 12:31:59;;;;;;;9.23;7.40;;;8.00;99.90;;;;;;5043722;28;20592;-82
2023/04/14 12:34:27;;;;;;;12.10;8.93;;;8.00;99.90;;;;;;5040679;28;20977;-79
2023/04/14 12:36:54;;;;;;;13.20;8.70;;;7.90;99.90;;;;;;5040872;28;20483;-79
2023/04/14 12:39:22;;;;;;;9.03;8.20;;;8.00;99.90;;;;;;5045893;28;20220;-78
2023/04/14 12:41:50;;;;;;;12.07;9.93;;;8.00;99.90;;;;;;5049258;28;20414;-76
2023/04/14 12:44:19;;;;;;;10.33;8.20;;;8.10;99.90;;;;;;5037858;28;20208;-78
2023/04/14 12:46:48;;;;;;;9.52;8.05;;;8.00;99.90;;;;;;5037491;28;20428;-80
2023/04/14 12:49:32;;;;;;;10.83;8.17;;;8.00;99.90;;;;;;5038955;28;20256;-79
2023/04/14 12:51:59;;;;;;;12.97;9.03;;;8.30;99.90;;;;;;5038251;28;20477;-78
2023/04/14 12:54:42;;;;;;;10.55;9.00;;;8.20;99.90;;;;;;5039776;28;20527;-81
2023/04/14 12:57:09;;;;;;;12.60;7.80;;;8.20;99.90;;;;;;5035700;28;20260;-77
2023/04/14 12:59:38;;;;;;;11.48;8.43;;;8.10;99.90;;;;;;5035046;28;20550;-78
2023/04/14 13:02:07;;;;;;;13.67;8.97;;;8.10;99.90;;;;;;5036379;28;20200;-78
2023/04/14 13:04:34;;;;;;;9.40;8.23;;;8.20;99.90;;;;;;5035338;28;20434;-77
2023/04/14 13:07:03;;;;;;;10.03;8.20;;;8.20;99.90;;;;;;5034980;28;20485;-78
2023/04/14 13:09:31;;;;;;;9.70;8.33;;;8.20;99.90;;;;;;5034464;28;20850;-77
2023/04/14 13:11:58;;;;;;;10.57;8.43;;;8.30;99.90;;;;;;5034503;28;20490;-77
2023/04/14 13:14:25;;;;;;;9.97;7.60;;;8.20;99.90;;;;;;5040998;28;20429;-77
2023/04/14 13:16:52;;;;;;;9.30;8.13;;;8.20;99.90;;;;;;5045181;28;20479;-79
2023/04/14 13:19:19;;;;;;;10.63;7.95;;;8.20;99.90;;;;;;5035129;28;20475;-77
2023/04/14 13:21:46;;;;;;;10.90;7.20;;;8.10;99.90;;;;;;5035843;28;20202;-79
2023/04/14 13:24:12;;;;;;;12.37;8.73;;;8.00;99.90;;;;;;5038109;28;20485;-78
2023/04/14 13:26:41;;;;;;;11.60;6.70;;;8.00;99.90;;;;;;5038920;28;20919;-78
2023/04/14 13:29:07;;;;;;;12.20;8.63;;;8.10;99.90;;;;;;5036718;28;20521;-78
2023/04/14 13:31:34;;;;;;;12.03;8.60;;;8.10;99.90;;;;;;5036691;28;20616;-76
2023/04/14 13:34:01;;;;;;;9.50;7.73;;;8.10;99.90;;;;;;5034023;28;20478;-77
2023/04/14 13:36:28;;;;;;;12.07;8.63;;;8.10;99.90;;;;;;5042860;28;20421;-79
2023/04/14 13:38:56;;;;;;;11.60;9.67;;;8.30;99.90;;;;;;5046133;28;20527;-80
2023/04/14 13:41:23;;;;;;;12.27;9.20;;;8.20;99.90;;;;;;5041343;28;20502;-79
2023/04/14 13:43:51;;;;;;;10.07;9.07;;;8.10;99.90;;;;;;5042656;28;20432;-80
2023/04/14 13:46:18;;;;;;;13.00;9.02;;;8.10;99.90;;;;;;5044574;28;20445;-80
2023/04/14 13:48:45;;;;;;;16.60;9.90;;;8.20;99.90;;;;;;5047378;28;20220;-78
2023/04/14 13:51:12;;;;;;;11.83;8.73;;;8.20;99.90;;;;;;5047269;28;20463;-83
2023/04/14 13:53:39;;;;;;;19.55;9.82;;;8.20;99.90;;;;;;5042049;28;20545;-84
2023/04/14 13:56:06;;;;;;;13.00;9.52;;;8.20;99.90;;;;;;5042140;28;20296;-83
2023/04/14 13:58:47;;;;;;;12.30;9.10;;;8.10;99.90;;;;;;5041936;28;20262;-84
2023/04/14 14:01:15;;;;;;;10.60;9.50;;;8.20;99.90;;;;;;5055714;28;20436;-81
2023/04/14 14:03:42;;;;;;;13.50;8.80;;;8.30;99.90;;;;;;5051170;28;20424;-83
2023/04/14 14:06:09;;;;;;;12.87;10.47;;;8.30;99.90;;;;;;5044507;28;20418;-86
2023/04/14 14:08:36;;;;;;;11.03;9.47;;;8.00;99.90;;;;;;5041871;28;20475;-79
2023/04/14 14:11:05;;;;;;;13.53;9.00;;;8.20;99.90;;;;;;5043356;28;20533;-81
2023/04/14 14:13:32;;;;;;;11.67;9.27;;;8.20;99.90;;;;;;5045942;28;20531;-79
2023/04/14 14:15:59;;;;;;;11.97;9.47;;;8.20;99.90;;;;;;5043117;28;20428;-82
2023/04/14 14:18:27;;;;;;;10.90;8.87;;;8.00;99.90;;;;;;5041881;28;20449;-79
2023/04/14 14:20:54;;;;;;;18.80;10.43;;;8.20;99.90;;;;;;5041204;28;20426;-78
2023/04/14 14:23:21;;;;;;;12.37;9.00;;;8.20;99.90;;;;;;5040811;28;20489;-78
2023/04/14 14:25:48;;;;;;;13.03;8.43;;;8.30;99.90;;;;;;5041424;28;20946;-78
2023/04/14 14:28:15;;;;;;;9.73;7.70;;;8.40;99.90;;;;;;5041336;28;20458;-79
2023/04/14 14:30:41;;;;;;;9.20;7.87;;;8.30;99.90;;;;;;5045507;28;20450;-78
2023/04/14 14:33:08;;;;;;;13.07;8.40;;;8.30;99.90;;;;;;5042252;28;20942;-78
2023/04/14 14:35:37;;;;;;;9.77;6.90;;;8.30;99.90;;;;;;5047949;28;20447;-77
2023/04/14 14:38:04;;;;;;;10.07;7.43;;;8.40;99.90;;;;;;5049794;28;20457;-78
2023/04/14 14:40:31;;;;;;;7.68;6.28;;;8.20;99.90;;;;;;5054652;28;21011;-84
2023/04/14 14:42:58;;;;;;;9.93;7.37;;;8.30;99.90;;;;;;5053163;28;20279;-79
2023/04/14 14:45:26;;;;;;;6.47;5.67;;;8.30;99.90;;;;;;5050942;28;20490;-82
2023/04/14 14:47:53;;;;;;;7.57;6.10;;;8.20;99.90;;;;;;5044215;28;20421;-82
2023/04/14 14:50:20;;;;;;;5.03;4.55;;;8.20;99.90;;;;;;5043506;28;20254;-84
2023/04/14 14:52:48;;;;;;;8.55;6.82;;;8.10;99.90;;;;;;5038828;28;20316;-82
2023/04/14 14:55:15;;;;;;;6.83;6.17;;;8.10;99.90;;;;;;5040734;28;20619;-82
2023/04/14 14:57:42;;;;;;;9.38;7.25;;;8.00;99.90;;;;;;5040463;28;20422;-83
2023/04/14 15:00:09;;;;;;;9.10;6.70;;;8.40;99.90;;;;;;5053181;22;20244;-76
2023/04/14 15:02:37;;;;;;;8.57;6.37;;;9.30;99.90;;;;;;5039090;28;20456;-78
2023/04/14 15:05:06;;;;;;;8.17;6.40;;;8.30;99.90;;;;;;5040186;28;20429;-79
2023/04/14 15:07:33;;;;;;;7.55;5.90;;;8.20;99.90;;;;;;5035329;28;20547;-79
2023/04/14 15:10:03;;;;;;;8.68;7.07;;;8.20;99.90;;;;;;5038393;28;20224;-78
2023/04/14 15:12:30;;;;;;;7.55;6.20;;;8.40;99.90;;;;;;5036825;28;20224;-77
2023/04/14 15:14:57;;;;;;;9.70;6.93;;;8.20;99.90;;;;;;5041435;28;20255;-80
2023/04/14 15:17:24;;;;;;;7.40;6.70;;;8.10;99.90;;;;;;5038005;28;20512;-80
2023/04/14 15:19:51;;;;;;;9.20;7.07;;;8.10;99.90;;;;;;5037426;28;20288;-79
2023/04/14 15:22:18;;;;;;;5.88;5.30;;;8.10;99.90;;;;;;5038255;28;20639;-78
2023/04/14 15:24:45;;;;;;;8.55;6.03;;;8.10;99.90;;;;;;5039187;28;20237;-79
2023/04/14 15:27:13;;;;;;;7.23;6.13;;;8.10;99.90;;;;;;5037890;28;20660;-79
2023/04/14 15:29:40;;;;;;;8.50;6.33;;;8.10;99.90;;;;;;5038077;28;20472;-81
2023/04/14 15:32:07;;;;;;;9.33;6.47;;;8.10;99.90;;;;;;5039571;28;20457;-78
2023/04/14 15:34:33;;;;;;;8.63;7.00;;;8.20;99.90;;;;;;5045617;28;20454;-78
2023/04/14 15:37:00;;;;;;;8.00;6.27;;;8.10;99.90;;;;;;5043748;28;20414;-77
2023/04/14 15:39:27;;;;;;;7.73;6.50;;;8.10;99.90;;;;;;5046865;28;20468;-80
2023/04/14 15:41:54;;;;;;;7.22;5.93;;;8.10;99.90;;;;;;5041737;28;20447;-81